createdAt,value
2018-03-08T00:00:39.944Z,60.9
2018-03-08T00:01:30.633Z,61
2018-03-08T00:02:20.920Z,60.9
2018-03-08T00:03:11.293Z,60.9
2018-03-08T00:04:01.333Z,60.9
2018-03-08T00:04:50.826Z,60.9
2018-03-08T00:05:41.438Z,60.9
2018-03-08T00:06:31.490Z,60.9
2018-03-08T00:07:21.539Z,60.9
2018-03-08T00:08:11.355Z,60.9
2018-03-08T00:09:01.371Z,60.9
2018-03-08T00:09:51.424Z,60.9
2018-03-08T00:10:41.220Z,60.9
2018-03-08T00:11:31.560Z,60.9
2018-03-08T00:12:21.643Z,60.9
2018-03-08T00:13:12.065Z,60.9
2018-03-08T00:14:01.188Z,60.8
2018-03-08T00:14:51.872Z,60.8
2018-03-08T00:15:41.582Z,60.8
2018-03-08T00:16:31.923Z,60.8
2018-03-08T00:17:21.981Z,60.8
2018-03-08T00:18:12.344Z,60.8
2018-03-08T00:19:02.383Z,60.8
2018-03-08T00:19:52.432Z,60.8
2018-03-08T00:20:42.206Z,60.8
2018-03-08T00:21:31.982Z,60.8
2018-03-08T00:22:21.853Z,60.8
2018-03-08T00:23:12.017Z,60.8
2018-03-08T00:24:01.915Z,60.8
2018-03-08T00:24:52.566Z,60.8
2018-03-08T00:25:42.568Z,60.8
2018-03-08T00:26:32.921Z,60.8
2018-03-08T00:27:22.023Z,60.7
2018-03-08T00:28:12.755Z,60.7
2018-03-08T00:29:02.844Z,60.7
2018-03-08T00:29:52.631Z,60.7
2018-03-08T00:30:42.479Z,60.7
2018-03-08T00:31:32.114Z,60.6
2018-03-08T00:32:22.189Z,60.6
2018-03-08T00:33:12.466Z,60.6
2018-03-08T00:34:02.644Z,60.6
2018-03-08T00:34:52.642Z,60.6
2018-03-08T00:35:43.138Z,60.6
2018-03-08T00:36:32.072Z,60.6
2018-03-08T00:37:22.149Z,60.6
2018-03-08T00:38:13.199Z,60.6
2018-03-08T00:39:03.285Z,60.6
2018-03-08T00:39:53.347Z,60.6
2018-03-08T00:40:42.758Z,60.6
2018-03-08T00:41:33.305Z,60.6
2018-03-08T00:42:22.838Z,60.6
2018-03-08T00:43:13.534Z,60.6
2018-03-08T00:44:03.593Z,60.6
2018-03-08T00:44:53.759Z,60.6
2018-03-08T00:45:43.012Z,60.5
2018-03-08T00:46:33.073Z,60.5
2018-03-08T00:47:24.210Z,60.5
2018-03-08T00:48:13.765Z,60.5
2018-03-08T00:49:03.181Z,60.5
2018-03-08T00:49:54.327Z,60.5
2018-03-08T00:50:43.750Z,60.5
2018-03-08T00:51:33.297Z,60.5
2018-03-08T00:52:24.232Z,60.5
2018-03-08T00:53:14.591Z,60.4
2018-03-08T00:54:04.105Z,60.4
2018-03-08T00:54:54.340Z,60.4
2018-03-08T00:55:44.234Z,60.4
2018-03-08T00:56:33.885Z,60.4
2018-03-08T00:57:24.257Z,60.4
2018-03-08T00:58:14.404Z,60.4
2018-03-08T00:59:04.707Z,60.4
2018-03-08T00:59:54.809Z,60.4
2018-03-08T01:00:44.567Z,60.4
2018-03-08T01:01:34.813Z,60.4
2018-03-08T01:02:25.131Z,60.4
2018-03-08T01:03:14.972Z,60.3
2018-03-08T01:04:04.777Z,60.3
2018-03-08T01:04:55.680Z,60.3
2018-03-08T01:05:44.929Z,60.3
2018-03-08T01:06:34.668Z,60.3
2018-03-08T01:07:25.553Z,60.3
2018-03-08T01:08:14.688Z,60.3
2018-03-08T01:09:05.044Z,60.3
2018-03-08T01:09:55.465Z,60.3
2018-03-08T01:10:45.787Z,60.3
2018-03-08T01:11:35.131Z,60.3
2018-03-08T01:12:25.558Z,60.3
2018-03-08T01:13:15.424Z,60.3
2018-03-08T01:14:05.786Z,60.3
2018-03-08T01:14:56.161Z,60.3
2018-03-08T01:15:45.774Z,60.3
2018-03-08T01:16:35.669Z,60.3
2018-03-08T01:17:25.663Z,60.2
2018-03-08T01:18:15.719Z,60.2
2018-03-08T01:19:05.676Z,60.2
2018-03-08T01:19:55.909Z,60.1
2018-03-08T01:20:45.471Z,60.2
2018-03-08T01:21:35.439Z,60.2
2018-03-08T01:22:25.789Z,60.1
2018-03-08T01:23:15.867Z,60.1
2018-03-08T01:24:05.980Z,60.1
2018-03-08T01:24:56.258Z,60.1
2018-03-08T01:25:46.245Z,60.1
2018-03-08T01:26:36.083Z,60.1
2018-03-08T01:27:26.445Z,60.1
2018-03-08T01:28:16.702Z,60.1
2018-03-08T01:29:06.311Z,60.1
2018-03-08T01:29:57.091Z,60.1
2018-03-08T01:30:46.479Z,60.1
2018-03-08T01:31:36.432Z,60.1
2018-03-08T01:32:26.798Z,60.1
2018-03-08T01:33:17.362Z,60.1
2018-03-08T01:34:06.821Z,60.1
2018-03-08T01:34:56.673Z,60
2018-03-08T01:35:46.725Z,60
2018-03-08T01:36:37.370Z,60
2018-03-08T01:37:27.628Z,60
2018-03-08T01:38:17.963Z,60
2018-03-08T01:39:07.260Z,60
2018-03-08T01:39:57.557Z,60
2018-03-08T01:40:47.548Z,59.9
2018-03-08T01:41:37.132Z,59.9
2018-03-08T01:42:27.199Z,59.9
2018-03-08T01:43:17.447Z,59.9
2018-03-08T01:44:08.087Z,59.9
2018-03-08T01:44:57.560Z,59.9
2018-03-08T01:45:47.547Z,59.9
2018-03-08T01:46:37.692Z,59.9
2018-03-08T01:47:27.750Z,59.9
2018-03-08T01:48:18.181Z,59.9
2018-03-08T01:49:08.738Z,59.9
2018-03-08T01:49:57.745Z,59.9
2018-03-08T01:50:48.297Z,59.9
2018-03-08T01:51:38.342Z,59.9
2018-03-08T01:52:28.090Z,59.8
2018-03-08T01:53:18.495Z,59.8
2018-03-08T01:54:08.013Z,59.8
2018-03-08T01:54:58.305Z,59.8
2018-03-08T01:55:48.853Z,59.8
2018-03-08T01:56:38.271Z,59.8
2018-03-08T01:57:27.975Z,59.8
2018-03-08T01:58:18.236Z,59.8
2018-03-08T01:59:09.201Z,59.8
2018-03-08T01:59:58.982Z,59.8
2018-03-08T02:00:48.949Z,59.8
2018-03-08T02:01:39.321Z,59.8
2018-03-08T02:02:28.282Z,59.8
2018-03-08T02:03:18.889Z,59.8
2018-03-08T02:04:08.554Z,59.7
2018-03-08T02:04:58.956Z,59.7
2018-03-08T02:05:49.316Z,59.7
2018-03-08T02:06:38.929Z,59.7
2018-03-08T02:07:29.711Z,59.7
2018-03-08T02:08:19.606Z,59.7
2018-03-08T02:09:08.991Z,59.7
2018-03-08T02:09:59.301Z,59.6
2018-03-08T02:10:48.783Z,59.7
2018-03-08T02:11:39.720Z,59.6
2018-03-08T02:12:29.302Z,59.6
2018-03-08T02:13:20.148Z,59.6
2018-03-08T02:14:10.007Z,59.6
2018-03-08T02:14:59.718Z,59.6
2018-03-08T02:15:49.805Z,59.6
2018-03-08T02:16:40.215Z,59.6
2018-03-08T02:17:30.286Z,59.6
2018-03-08T02:18:20.214Z,59.6
2018-03-08T02:19:09.982Z,59.6
2018-03-08T02:19:59.925Z,59.6
2018-03-08T02:20:50.079Z,59.5
2018-03-08T02:21:40.122Z,59.5
2018-03-08T02:22:30.782Z,59.5
2018-03-08T02:23:20.337Z,59.5
2018-03-08T02:24:10.217Z,59.5
2018-03-08T02:25:00.388Z,59.5
2018-03-08T02:25:50.739Z,59.5
2018-03-08T02:26:40.542Z,59.5
2018-03-08T02:27:30.812Z,59.4
2018-03-08T02:28:20.412Z,59.4
2018-03-08T02:29:10.680Z,59.4
2018-03-08T02:30:01.322Z,59.4
2018-03-08T02:30:50.789Z,59.4
2018-03-08T02:31:40.852Z,59.4
2018-03-08T02:32:30.905Z,59.4
2018-03-08T02:33:20.661Z,59.4
2018-03-08T02:34:10.742Z,59.4
2018-03-08T02:35:01.148Z,59.4
2018-03-08T02:35:51.225Z,59.4
2018-03-08T02:36:40.686Z,59.4
2018-03-08T02:37:31.058Z,59.3
2018-03-08T02:38:21.112Z,59.3
2018-03-08T02:39:11.462Z,59.3
2018-03-08T02:40:01.495Z,59.3
2018-03-08T02:40:51.391Z,59.4
2018-03-08T02:41:41.555Z,59.6
2018-03-08T02:42:30.925Z,59.8
2018-03-08T02:43:21.373Z,59.9
2018-03-08T02:44:12.001Z,60.1
2018-03-08T02:45:01.944Z,60.3
2018-03-08T02:45:51.231Z,60.4
2018-03-08T02:46:42.236Z,60.4
2018-03-08T02:47:31.949Z,60.7
2018-03-08T02:48:22.079Z,60.8
2018-03-08T02:49:11.908Z,60.9
2018-03-08T02:50:02.286Z,60.9
2018-03-08T02:50:53.074Z,61.1
2018-03-08T02:51:42.590Z,61.3
2018-03-08T02:52:32.434Z,61.4
2018-03-08T02:53:22.637Z,61.4
2018-03-08T02:54:12.724Z,61.4
2018-03-08T02:55:02.873Z,61.7
2018-03-08T02:55:52.624Z,61.8
2018-03-08T02:56:42.303Z,61.9
2018-03-08T02:57:32.160Z,61.9
2018-03-08T02:58:22.906Z,62.1
2018-03-08T02:59:13.392Z,62.1
2018-03-08T03:00:03.116Z,62.2
2018-03-08T03:00:53.463Z,62.3
2018-03-08T03:01:43.243Z,62.4
2018-03-08T03:02:32.773Z,62.6
2018-03-08T03:03:22.656Z,62.6
2018-03-08T03:04:13.589Z,62.6
2018-03-08T03:05:03.260Z,62.6
2018-03-08T03:05:52.835Z,62.8
2018-03-08T03:06:42.775Z,62.8
2018-03-08T03:07:33.142Z,62.9
2018-03-08T03:08:22.927Z,62.9
2018-03-08T03:09:13.589Z,62.9
2018-03-08T03:10:03.844Z,63.1
2018-03-08T03:10:53.623Z,63.2
2018-03-08T03:11:43.635Z,63.2
2018-03-08T03:12:33.989Z,63.2
2018-03-08T03:13:24.124Z,63.3
2018-03-08T03:14:14.112Z,63.6
2018-03-08T03:15:03.901Z,63.7
2018-03-08T03:15:53.945Z,63.7
2018-03-08T03:16:44.676Z,63.7
2018-03-08T03:17:34.068Z,63.7
2018-03-08T03:18:24.652Z,63.8
2018-03-08T03:19:14.707Z,63.8
2018-03-08T03:20:05.101Z,63.9
2018-03-08T03:20:54.554Z,64.1
2018-03-08T03:21:44.634Z,64.1
2018-03-08T03:22:35.214Z,64
2018-03-08T03:23:25.308Z,64.1
2018-03-08T03:24:15.331Z,64.1
2018-03-08T03:25:04.546Z,64.1
2018-03-08T03:25:54.809Z,64.2
2018-03-08T03:26:44.579Z,64.3
2018-03-08T03:27:34.720Z,64.3
2018-03-08T03:28:24.895Z,64.3
2018-03-08T03:29:14.960Z,64.3
2018-03-08T03:30:05.553Z,64.3
2018-03-08T03:30:54.788Z,64.3
2018-03-08T03:31:44.654Z,64.4
2018-03-08T03:32:35.407Z,64.5
2018-03-08T03:33:25.724Z,64.5
2018-03-08T03:34:15.503Z,64.5
2018-03-08T03:35:05.586Z,64.5
2018-03-08T03:35:55.695Z,64.5
2018-03-08T03:36:45.463Z,64.5
2018-03-08T03:37:35.753Z,64.6
2018-03-08T03:38:25.233Z,64.6
2018-03-08T03:39:15.449Z,64.6
2018-03-08T03:40:05.737Z,64.6
2018-03-08T03:40:55.780Z,64.6
2018-03-08T03:41:45.760Z,64.6
2018-03-08T03:42:36.084Z,64.6
2018-03-08T03:43:25.972Z,64.5
2018-03-08T03:44:15.992Z,64.6
2018-03-08T03:45:06.535Z,64.5
2018-03-08T03:45:56.617Z,64.6
2018-03-08T03:46:46.636Z,64.5
2018-03-08T03:47:36.787Z,64.5
2018-03-08T03:48:26.197Z,64.5
2018-03-08T03:49:16.870Z,64.5
2018-03-08T03:50:06.625Z,64.5
2018-03-08T03:50:57.248Z,64.5
2018-03-08T03:51:47.283Z,64.5
2018-03-08T03:52:37.324Z,64.5
2018-03-08T03:53:27.376Z,64.4
2018-03-08T03:54:17.184Z,64.4
2018-03-08T03:55:07.521Z,64.4
2018-03-08T03:55:56.991Z,64.4
2018-03-08T03:56:46.085Z,64.4
2018-03-08T03:57:37.152Z,64.4
2018-03-08T03:58:26.905Z,64.4
2018-03-08T03:59:16.810Z,64.4
2018-03-08T04:00:07.587Z,64.4
2018-03-08T04:00:56.595Z,64.4
2018-03-08T04:01:47.004Z,64.4
2018-03-08T04:02:37.199Z,64.4
2018-03-08T04:03:27.371Z,64.4
2018-03-08T04:04:17.322Z,64.4
2018-03-08T04:05:06.999Z,64.3
2018-03-08T04:05:57.441Z,64.3
2018-03-08T04:06:48.109Z,64.3
2018-03-08T04:07:37.854Z,64.3
2018-03-08T04:08:27.894Z,64.3
2018-03-08T04:09:18.051Z,64.3
2018-03-08T04:10:07.544Z,64.3
2018-03-08T04:10:58.175Z,64.3
2018-03-08T04:11:48.226Z,64.3
2018-03-08T04:12:38.279Z,64.3
2018-03-08T04:13:27.943Z,64.3
2018-03-08T04:14:17.998Z,64.2
2018-03-08T04:15:08.073Z,64.2
2018-03-08T04:15:57.927Z,64.2
2018-03-08T04:16:48.460Z,64.2
2018-03-08T04:17:38.825Z,64.2
2018-03-08T04:18:28.097Z,64.2
2018-03-08T04:19:18.468Z,64.2
2018-03-08T04:20:08.520Z,64.2
2018-03-08T04:20:58.510Z,64.1
2018-03-08T04:21:48.543Z,64.1
2018-03-08T04:22:38.760Z,64.1
2018-03-08T04:23:28.778Z,64.1
2018-03-08T04:24:19.326Z,64.1
2018-03-08T04:25:08.876Z,64.1
2018-03-08T04:25:59.412Z,64.1
2018-03-08T04:26:48.713Z,64.1
2018-03-08T04:27:39.815Z,64.1
2018-03-08T04:28:29.924Z,64.1
2018-03-08T04:29:19.064Z,64.1
2018-03-08T04:30:09.028Z,64.1
2018-03-08T04:30:58.983Z,64
2018-03-08T04:31:49.626Z,64
2018-03-08T04:32:38.998Z,64
2018-03-08T04:33:29.681Z,64
2018-03-08T04:34:19.994Z,64
2018-03-08T04:35:08.952Z,64
2018-03-08T04:35:59.261Z,63.9
2018-03-08T04:36:49.723Z,63.9
2018-03-08T04:37:39.940Z,63.9
2018-03-08T04:38:29.492Z,63.9
2018-03-08T04:39:19.750Z,63.9
2018-03-08T04:40:10.383Z,63.9
2018-03-08T04:40:59.983Z,63.9
2018-03-08T04:41:49.828Z,63.9
2018-03-08T04:42:40.557Z,63.9
2018-03-08T04:43:29.776Z,63.9
2018-03-08T04:44:20.159Z,63.9
2018-03-08T04:45:10.172Z,63.9
2018-03-08T04:46:00.340Z,63.9
2018-03-08T04:46:50.214Z,63.8
2018-03-08T04:47:40.916Z,63.9
2018-03-08T04:48:30.527Z,63.8
2018-03-08T04:49:20.265Z,63.8
2018-03-08T04:50:10.245Z,63.8
2018-03-08T04:51:01.208Z,63.8
2018-03-08T04:51:50.175Z,63.8
2018-03-08T04:52:40.986Z,63.8
2018-03-08T04:53:30.542Z,63.8
2018-03-08T04:54:20.832Z,63.8
2018-03-08T04:55:10.873Z,63.8
2018-03-08T04:56:00.922Z,63.8
2018-03-08T04:56:51.079Z,63.8
2018-03-08T04:57:41.624Z,63.8
2018-03-08T04:58:31.301Z,63.7
2018-03-08T04:59:20.474Z,63.7
2018-03-08T05:00:11.511Z,63.7
2018-03-08T05:01:01.369Z,63.7
2018-03-08T05:01:51.642Z,63.7
2018-03-08T05:02:40.809Z,63.7
2018-03-08T05:03:31.574Z,63.7
2018-03-08T05:04:21.113Z,63.7
2018-03-08T05:05:11.665Z,63.6
2018-03-08T05:06:01.941Z,63.6
2018-03-08T05:06:51.978Z,63.6
2018-03-08T05:07:41.908Z,63.6
2018-03-08T05:08:31.508Z,63.6
2018-03-08T05:09:22.184Z,63.6
2018-03-08T05:10:12.111Z,63.6
2018-03-08T05:11:01.698Z,63.6
2018-03-08T05:11:51.844Z,63.6
2018-03-08T05:12:42.122Z,63.6
2018-03-08T05:13:32.316Z,63.6
2018-03-08T05:14:22.806Z,63.6
2018-03-08T05:15:12.849Z,63.6
2018-03-08T05:16:03.204Z,63.5
2018-03-08T05:16:52.853Z,63.5
2018-03-08T05:17:42.452Z,63.5
2018-03-08T05:18:31.950Z,63.5
2018-03-08T05:19:22.856Z,63.5
2018-03-08T05:20:12.725Z,63.5
2018-03-08T05:21:02.758Z,63.4
2018-03-08T05:21:53.341Z,63.5
2018-03-08T05:22:42.301Z,63.4
2018-03-08T05:23:33.253Z,63.4
2018-03-08T05:24:23.249Z,63.4
2018-03-08T05:25:13.253Z,63.4
2018-03-08T05:26:03.639Z,63.4
2018-03-08T05:26:52.798Z,63.4
2018-03-08T05:27:43.239Z,63.4
2018-03-08T05:28:33.298Z,63.4
2018-03-08T05:29:22.988Z,63.4
2018-03-08T05:30:12.815Z,63.4
2018-03-08T05:31:03.392Z,63.4
2018-03-08T05:31:53.821Z,63.4
2018-03-08T05:32:42.913Z,63.3
2018-03-08T05:33:34.382Z,63.3
2018-03-08T05:34:24.184Z,63.3
2018-03-08T05:35:14.224Z,63.3
2018-03-08T05:36:04.312Z,63.3
2018-03-08T05:36:54.350Z,63.3
2018-03-08T05:37:44.492Z,63.3
2018-03-08T05:38:34.450Z,63.3
2018-03-08T05:39:24.568Z,63.3
2018-03-08T05:40:14.591Z,63.3
2018-03-08T05:41:04.701Z,63.3
2018-03-08T05:41:54.445Z,63.3
2018-03-08T05:42:44.802Z,63.3
2018-03-08T05:43:34.810Z,63.3
2018-03-08T05:44:24.601Z,63.2
2018-03-08T05:45:14.659Z,63.2
2018-03-08T05:46:05.004Z,63.2
2018-03-08T05:46:54.479Z,63.2
2018-03-08T05:47:44.840Z,63.2
2018-03-08T05:48:34.490Z,63.2
2018-03-08T05:49:24.280Z,63.1
2018-03-08T05:50:14.996Z,63.1
2018-03-08T05:51:05.375Z,63.1
2018-03-08T05:51:54.125Z,63.1
2018-03-08T05:52:44.980Z,63.1
2018-03-08T05:53:35.800Z,63.1
2018-03-08T05:54:24.636Z,63.1
2018-03-08T05:55:14.787Z,63.1
2018-03-08T05:56:04.630Z,63.1
2018-03-08T05:56:55.176Z,63.1
2018-03-08T05:57:45.107Z,63.1
2018-03-08T05:58:35.343Z,63.1
2018-03-08T05:59:25.619Z,63.1
2018-03-08T06:00:15.304Z,63
2018-03-08T06:01:05.566Z,63
2018-03-08T06:01:55.324Z,63
2018-03-08T06:02:45.278Z,63
2018-03-08T06:03:35.637Z,63
2018-03-08T06:04:26.006Z,63
2018-03-08T06:05:16.114Z,63
2018-03-08T06:06:05.816Z,63
2018-03-08T06:06:55.553Z,62.9
2018-03-08T06:07:46.026Z,62.9
2018-03-08T06:08:36.296Z,62.9
2018-03-08T06:09:25.942Z,62.9
2018-03-08T06:10:16.419Z,62.9
2018-03-08T06:11:06.184Z,62.9
2018-03-08T06:11:55.928Z,62.9
2018-03-08T06:12:46.899Z,62.9
2018-03-08T06:13:36.728Z,62.9
2018-03-08T06:14:27.171Z,62.9
2018-03-08T06:15:16.634Z,62.9
2018-03-08T06:16:06.814Z,62.9
2018-03-08T06:16:56.379Z,62.8
2018-03-08T06:17:46.650Z,62.8
2018-03-08T06:18:36.558Z,62.8
2018-03-08T06:19:27.172Z,62.8
2018-03-08T06:20:17.105Z,62.8
2018-03-08T06:21:06.968Z,62.8
2018-03-08T06:21:56.937Z,62.8
2018-03-08T06:22:46.781Z,62.8
2018-03-08T06:23:37.913Z,62.8
2018-03-08T06:24:27.721Z,62.8
2018-03-08T06:25:17.712Z,62.8
2018-03-08T06:26:08.107Z,62.8
2018-03-08T06:26:58.123Z,62.8
2018-03-08T06:27:48.148Z,62.8
2018-03-08T06:28:38.252Z,62.7
2018-03-08T06:29:27.492Z,62.7
2018-03-08T06:30:18.342Z,62.7
2018-03-08T06:31:07.071Z,62.7
2018-03-08T06:31:58.453Z,62.7
2018-03-08T06:32:47.959Z,62.7
2018-03-08T06:33:38.576Z,62.7
2018-03-08T06:34:28.678Z,62.6
2018-03-08T06:35:18.118Z,62.6
2018-03-08T06:36:08.465Z,62.6
2018-03-08T06:36:58.824Z,62.6
2018-03-08T06:37:48.852Z,62.6
2018-03-08T06:38:38.897Z,62.6
2018-03-08T18:44:58.495Z,54.2
2018-03-08T18:45:47.793Z,54.2
2018-03-08T18:46:38.346Z,54.2
2018-03-08T18:47:28.000Z,54.2
2018-03-08T18:48:18.772Z,54.2
2018-03-08T18:49:08.014Z,54.2
2018-03-08T18:49:58.247Z,54.1
2018-03-08T18:50:47.903Z,54.1
2018-03-08T18:51:38.370Z,54.1
2018-03-08T18:52:29.287Z,54.1
2018-03-08T18:53:19.019Z,54.1
2018-03-08T18:54:09.088Z,54.1
2018-03-08T18:54:59.179Z,54.1
2018-03-08T18:55:49.484Z,54.1
2018-03-08T18:56:39.033Z,54
2018-03-08T18:57:29.063Z,54.1
2018-03-08T18:58:18.513Z,54
2018-03-08T18:59:08.689Z,54
2018-03-08T18:59:58.658Z,54
2018-03-08T19:00:49.336Z,54
2018-03-08T19:01:38.778Z,54
2018-03-08T19:02:28.821Z,53.9
2018-03-08T19:03:18.988Z,53.9
2018-03-08T19:04:09.324Z,53.9
2018-03-08T19:04:59.583Z,53.9
2018-03-08T19:05:49.191Z,53.9
2018-03-08T19:06:39.425Z,53.9
2018-03-08T19:07:29.493Z,53.9
2018-03-08T19:08:19.958Z,53.9
2018-03-08T19:09:09.295Z,53.9
2018-03-08T19:09:59.926Z,53.9
2018-03-08T19:10:49.400Z,53.9
2018-03-08T19:11:40.323Z,53.9
2018-03-08T19:12:29.632Z,53.9
2018-03-08T19:13:19.961Z,53.8
2018-03-08T19:14:09.550Z,53.8
2018-03-08T19:15:00.400Z,53.8
2018-03-08T19:15:49.738Z,53.8
2018-03-08T19:16:39.904Z,53.8
2018-03-08T19:17:30.160Z,53.8
2018-03-08T19:18:20.444Z,53.8
2018-03-08T19:19:10.103Z,53.8
2018-03-08T19:20:00.650Z,53.8
2018-03-08T19:20:50.953Z,53.8
2018-03-08T19:21:40.469Z,53.8
2018-03-08T19:22:30.620Z,53.8
2018-03-08T19:23:20.001Z,53.8
2018-03-08T19:24:10.143Z,53.8
2018-03-08T19:25:01.078Z,53.7
2018-03-08T19:25:50.759Z,53.7
2018-03-08T19:26:40.347Z,53.7
2018-03-08T19:27:30.894Z,53.7
2018-03-08T19:28:20.725Z,53.7
2018-03-08T19:29:11.569Z,53.6
2018-03-08T19:30:01.297Z,53.6
2018-03-08T19:30:51.396Z,53.6
2018-03-08T19:31:40.757Z,53.6
2018-03-08T19:32:31.504Z,53.6
2018-03-08T19:33:21.594Z,53.6
2018-03-08T19:34:10.943Z,53.6
2018-03-08T19:35:01.687Z,53.6
2018-03-08T19:35:51.164Z,53.6
2018-03-08T19:36:42.451Z,53.6
2018-03-08T19:37:32.174Z,53.6
2018-03-08T19:38:22.488Z,53.6
2018-03-08T19:39:12.224Z,53.6
2018-03-08T19:40:01.989Z,53.5
2018-03-08T19:40:52.359Z,53.5
2018-03-08T19:41:42.389Z,53.5
2018-03-08T19:42:32.724Z,53.5
2018-03-08T19:43:22.004Z,53.5
2018-03-08T19:44:12.198Z,53.5
2018-03-08T19:45:02.101Z,53.4
2018-03-08T19:45:52.152Z,53.4
2018-03-08T19:46:42.013Z,53.4
2018-03-08T19:47:32.361Z,53.4
2018-03-08T19:48:22.708Z,53.4
2018-03-08T19:49:12.971Z,53.4
2018-03-08T19:50:03.079Z,53.4
2018-03-08T19:50:52.271Z,53.4
2018-03-08T19:51:42.845Z,53.4
2018-03-08T19:52:32.727Z,53.4
2018-03-08T19:53:22.653Z,53.4
2018-03-08T19:54:11.756Z,53.4
2018-03-08T19:55:03.090Z,53.4
2018-03-08T19:55:53.107Z,53.4
2018-03-08T19:56:42.500Z,53.3
2018-03-08T19:57:32.768Z,53.3
2018-03-08T19:58:23.130Z,53.3
2018-03-08T19:59:13.088Z,53.3
2018-03-08T20:00:03.851Z,53.3
2018-03-08T20:00:53.190Z,53.3
2018-03-08T20:01:43.995Z,53.3
2018-03-08T20:02:33.878Z,53.3
2018-03-08T20:03:23.642Z,53.3
2018-03-08T20:04:14.329Z,53.3
2018-03-08T20:05:04.033Z,53.3
2018-03-08T20:05:53.825Z,53.3
2018-03-08T20:06:44.222Z,53.2
2018-03-08T20:07:33.693Z,53.2
2018-03-08T20:08:24.282Z,53.2
2018-03-08T20:09:14.067Z,53.2
2018-03-08T20:10:04.405Z,53.2
2018-03-08T20:10:54.150Z,53.2
2018-03-08T20:11:44.780Z,53.1
2018-03-08T20:12:34.553Z,53.1
2018-03-08T20:13:24.602Z,53.1
2018-03-08T20:14:14.385Z,53.1
2018-03-08T20:15:05.092Z,53.1
2018-03-08T20:15:54.771Z,53.1
2018-03-08T20:16:44.859Z,53.1
2018-03-08T20:17:35.163Z,53.1
2018-03-08T20:18:25.237Z,53.1
2018-03-08T20:19:15.002Z,53.1
2018-03-08T20:20:05.152Z,53.1
2018-03-08T20:20:55.434Z,53.1
2018-03-08T20:21:44.340Z,53
2018-03-08T20:22:34.494Z,53.1
2018-03-08T20:23:25.328Z,53
2018-03-08T20:24:14.406Z,53
2018-03-08T20:25:04.554Z,53
2018-03-08T20:25:54.907Z,52.9
2018-03-08T20:26:44.689Z,53
2018-03-08T20:27:35.148Z,52.9
2018-03-08T20:28:24.906Z,52.9
2018-03-08T20:29:15.538Z,52.9
2018-03-08T20:30:05.246Z,52.9
2018-03-08T20:30:55.343Z,52.9
2018-03-08T20:31:45.624Z,52.9
2018-03-08T20:32:35.951Z,52.9
2018-03-08T20:33:25.559Z,52.9
2018-03-08T20:34:15.616Z,52.9
2018-03-08T20:35:05.258Z,52.9
2018-03-08T20:35:55.884Z,52.9
2018-03-08T20:36:46.239Z,52.8
2018-03-08T20:37:35.445Z,52.8
2018-03-08T20:38:25.610Z,52.8
2018-03-08T20:39:16.455Z,52.8
2018-03-08T20:40:05.920Z,52.8
2018-03-08T20:40:55.396Z,52.8
2018-03-08T20:41:45.749Z,52.8
2018-03-08T20:42:36.196Z,52.8
2018-03-08T20:43:25.759Z,52.8
2018-03-08T20:44:16.388Z,52.8
2018-03-08T20:45:06.553Z,52.7
2018-03-08T20:45:56.426Z,52.7
2018-03-08T20:46:46.385Z,52.7
2018-03-08T20:47:36.529Z,52.7
2018-03-08T20:48:26.082Z,52.7
2018-03-08T20:49:16.050Z,52.7
2018-03-08T20:50:06.339Z,52.7
2018-03-08T20:50:57.033Z,52.7
2018-03-08T20:51:46.334Z,52.6
2018-03-08T20:52:37.347Z,52.6
2018-03-08T20:53:26.837Z,52.6
2018-03-08T20:54:16.694Z,52.6
2018-03-08T20:55:06.959Z,52.6
2018-03-08T20:55:56.824Z,52.6
2018-03-08T20:56:47.167Z,52.6
2018-03-08T20:57:36.913Z,52.6
2018-03-08T20:58:27.324Z,52.6
2018-03-08T20:59:17.537Z,52.6
2018-03-08T21:00:07.199Z,52.5
2018-03-08T21:00:57.312Z,52.5
2018-03-08T21:01:47.507Z,52.5
2018-03-08T21:02:37.497Z,52.5
2018-03-08T21:03:27.856Z,52.5
2018-03-08T21:04:17.897Z,52.5
2018-03-08T21:05:07.670Z,52.4
2018-03-08T21:05:57.697Z,52.5
2018-03-08T21:06:47.899Z,52.4
2018-03-08T21:07:38.137Z,52.4
2018-03-08T21:08:28.263Z,52.4
2018-03-08T21:09:17.656Z,52.4
2018-03-08T21:10:07.601Z,52.4
2018-03-08T21:15:57.233Z,52.3
2018-03-08T21:16:48.749Z,52.3
2018-03-08T21:17:38.531Z,52.3
2018-03-08T21:18:28.888Z,52.3
2018-03-08T21:19:19.186Z,52.3
2018-03-08T21:20:09.524Z,52.3
2018-03-08T21:20:59.285Z,52.3
2018-03-08T21:21:49.347Z,52.3
2018-03-08T21:22:39.676Z,52.3
2018-03-08T21:23:29.770Z,52.3
2018-03-08T21:24:19.516Z,52.3
2018-03-08T21:25:09.649Z,52.3
2018-03-08T21:25:59.912Z,52.3
2018-03-08T21:26:49.983Z,52.3
2018-03-08T21:27:39.509Z,52.2
2018-03-08T21:28:30.098Z,52.2
2018-03-08T21:29:20.183Z,52.2
2018-03-08T21:30:09.926Z,52.2
2018-03-08T21:31:00.253Z,52.2
2018-03-08T21:31:50.320Z,52.1
2018-03-08T21:32:40.370Z,52.1
2018-03-08T21:33:30.218Z,52.1
2018-03-08T21:34:20.515Z,52.1
2018-03-08T21:35:10.003Z,52.1
2018-03-08T21:36:00.372Z,52.1
2018-03-08T21:36:50.405Z,52.1
2018-03-08T21:37:40.733Z,52.1
2018-03-08T21:38:30.282Z,52.1
2018-03-08T21:39:20.610Z,52.1
2018-03-08T21:40:10.938Z,52.1
2018-03-08T21:41:00.737Z,52.1
2018-03-08T21:41:50.884Z,52.1
2018-03-08T21:42:41.100Z,52
2018-03-08T21:43:30.590Z,52
2018-03-08T21:44:21.220Z,52
2018-03-08T21:45:10.712Z,52
2018-03-08T21:46:01.060Z,52
2018-03-08T21:46:51.121Z,52
2018-03-08T21:53:31.831Z,51.9
2018-03-08T21:54:21.349Z,51.9
2018-03-08T21:55:11.681Z,51.9
2018-03-08T21:56:01.507Z,51.9
2018-03-08T21:56:51.815Z,51.9
2018-03-08T21:57:41.672Z,51.9
2018-03-08T21:58:31.658Z,51.8
2018-03-08T21:59:21.701Z,51.8
2018-03-08T22:00:12.346Z,51.8
2018-03-08T22:01:02.389Z,51.8
2018-03-08T22:01:52.154Z,51.8
2018-03-08T22:02:41.934Z,51.8
2018-03-08T22:03:32.249Z,51.8
2018-03-08T22:04:22.612Z,51.8
2018-03-08T22:05:12.401Z,51.8
2018-03-08T22:06:02.494Z,51.8
2018-03-08T22:06:52.496Z,51.7
2018-03-08T22:07:42.866Z,51.7
2018-03-08T22:08:32.892Z,51.7
2018-03-08T22:09:22.953Z,51.7
2018-03-08T22:10:12.433Z,51.7
2018-03-08T22:11:02.805Z,51.6
2018-03-08T22:11:52.961Z,51.6
2018-03-08T22:12:42.903Z,51.6
2018-03-08T22:13:33.251Z,51.6
2018-03-08T22:14:23.280Z,51.6
2018-03-08T22:15:13.315Z,51.6
2018-03-08T22:16:03.392Z,51.6
2018-03-08T22:16:53.460Z,51.6
2018-03-08T22:17:43.229Z,51.6
2018-03-08T22:18:33.548Z,51.6
2018-03-08T22:19:23.616Z,51.6
2018-03-08T22:20:13.419Z,51.5
2018-03-08T22:21:03.744Z,51.5
2018-03-08T22:21:53.565Z,51.5
2018-03-08T22:22:43.894Z,51.5
2018-03-08T22:23:33.638Z,51.5
2018-03-08T22:24:23.668Z,51.5
2018-03-08T22:25:14.052Z,51.5
2018-03-08T22:26:03.822Z,51.4
2018-03-08T22:26:53.874Z,51.4
2018-03-08T22:27:44.220Z,51.4
2018-03-08T22:28:33.722Z,51.4
2018-03-08T22:29:23.294Z,51.4
2018-03-08T22:30:13.634Z,51.4
2018-03-08T22:31:03.726Z,51.4
2018-03-08T22:31:53.826Z,51.4
2018-03-08T22:32:44.261Z,51.4
2018-03-08T22:33:34.365Z,51.4
2018-03-08T22:34:23.549Z,51.4
2018-03-08T22:35:13.988Z,51.3
2018-03-08T22:36:04.261Z,51.4
2018-03-08T22:36:54.042Z,51.3
2018-03-08T22:37:44.164Z,51.3
2018-03-08T22:38:34.224Z,51.3
2018-03-08T22:39:23.902Z,51.3
2018-03-08T22:40:14.946Z,51.3
2018-03-08T22:41:04.209Z,51.3
2018-03-08T22:41:54.531Z,51.3
2018-03-08T22:42:44.446Z,51.3
2018-03-08T22:43:34.901Z,51.3
2018-03-08T22:44:24.363Z,51.3
2018-03-08T22:45:14.304Z,51.3
2018-03-08T22:46:04.939Z,51.3
2018-03-08T22:46:54.288Z,51.2
2018-03-08T22:47:45.144Z,51.2
2018-03-08T22:48:34.144Z,51.2
2018-03-08T22:49:25.069Z,51.2
2018-03-08T22:50:15.056Z,51.2
2018-03-08T22:51:05.003Z,51.1
2018-03-08T22:51:55.086Z,51.2
2018-03-08T22:52:45.961Z,51.1
2018-03-08T22:53:35.763Z,51.1
2018-03-08T22:54:26.065Z,51.1
2018-03-08T22:55:16.134Z,51.1
2018-03-08T22:56:05.692Z,51.1
2018-03-08T22:56:55.975Z,51.1
2018-03-08T22:57:46.041Z,51.1
2018-03-08T22:58:36.076Z,51.1
2018-03-08T22:59:26.482Z,51.1
2018-03-08T23:00:15.640Z,51.1
2018-03-08T23:01:06.247Z,51
2018-03-08T23:01:56.328Z,51.1
2018-03-08T23:02:46.385Z,51.1
2018-03-08T23:03:36.752Z,51
2018-03-08T23:04:26.541Z,51
2018-03-08T23:05:16.873Z,51
2018-03-08T23:06:06.872Z,51
2018-03-08T23:06:56.668Z,50.9
2018-03-08T23:07:46.981Z,50.9
2018-03-08T23:08:36.773Z,50.9
2018-03-08T23:09:26.843Z,50.9
2018-03-08T23:10:17.164Z,50.9
2018-03-08T23:11:07.237Z,50.9
2018-03-08T23:11:57.030Z,50.9
2018-03-08T23:12:46.809Z,50.9
2018-03-08T23:13:37.407Z,50.9
2018-03-08T23:14:27.494Z,50.9
2018-03-08T23:15:16.973Z,50.9
2018-03-08T23:16:07.587Z,50.9
2018-03-08T23:16:57.361Z,50.8
2018-03-08T23:17:47.701Z,50.8
2018-03-08T23:18:37.196Z,50.8
2018-03-08T23:19:27.829Z,50.8
2018-03-08T23:20:17.577Z,50.8
2018-03-08T23:21:07.916Z,50.8
2018-03-08T23:21:57.715Z,50.8
2018-03-08T23:22:48.055Z,50.8
2018-03-08T23:23:38.153Z,50.8
2018-03-08T23:24:27.928Z,50.8
2018-03-08T23:25:17.939Z,50.8